Time;durP1;ratioP1;P1;durP2;ratioP2;P2;SDS_P1;SDS_P2;PMS_P1;PMS_P2;Temp;Humidity;BMP_temperature;BMP_pressure;BME280_temperature;BME280_humidity;BME280_pressure;Samples;Min_cycle;Max_cycle;Signal;HPM_P1;HPM_P2
2022/05/13 00:00:14;;;;;;;1.87;1.70;;;14.80;1.40;;;16.11;100.00;95680.77;619040;226;32046;-74
2022/05/13 00:02:56;;;;;;;1.50;1.27;;;14.80;1.40;;;16.03;100.00;95682.55;646041;212;31513;-74
2022/05/13 00:05:38;;;;;;;2.87;2.53;;;14.80;1.40;;;16.00;100.00;95687.80;646139;216;31530;-74
2022/05/13 00:08:23;;;;;;;1.90;1.58;;;14.80;1.40;;;16.07;100.00;95685.47;644754;216;31727;-74
2022/05/13 00:13:39;;;;;;;1.50;1.40;;;14.80;1.40;;;16.00;100.00;95686.69;619323;225;32004;-73
2022/05/13 00:16:23;;;;;;;1.20;1.10;;;14.80;1.40;;;15.98;100.00;95680.69;645969;216;31560;-74
2022/05/13 00:21:40;;;;;;;2.50;1.40;;;14.80;1.40;;;16.04;100.00;95670.47;646700;212;31569;-74
2022/05/13 00:24:22;;;;;;;2.40;1.65;;;14.80;1.40;;;15.99;100.00;95667.33;646497;216;31613;-74
2022/05/13 00:27:04;;;;;;;1.45;1.35;;;14.80;1.40;;;16.04;100.00;95661.02;646670;216;42294;-73
2022/05/13 00:29:45;;;;;;;1.15;1.10;;;14.80;1.40;;;15.98;100.00;95664.61;646359;216;31505;-74
2022/05/13 00:32:27;;;;;;;3.70;1.25;;;14.80;1.40;;;15.97;100.00;95666.64;646911;212;31655;-74
2022/05/13 00:35:51;;;;;;;4.32;2.20;;;14.90;1.40;;;15.99;100.00;95664.11;646045;216;32177;-74
2022/05/13 00:38:32;;;;;;;2.50;1.30;;;14.90;1.40;;;15.96;100.00;95666.30;619668;222;32459;-74
2022/05/13 00:41:14;;;;;;;2.10;1.60;;;14.90;1.40;;;15.93;100.00;95665.88;645989;216;31664;-74
2022/05/13 00:43:56;;;;;;;2.05;1.60;;;15.00;1.40;;;15.96;100.00;95668.71;618717;226;31988;-73
2022/05/13 00:46:38;;;;;;;2.37;1.42;;;15.00;1.40;;;15.97;100.00;95667.91;646382;216;31542;-74
2022/05/13 00:49:22;;;;;;;2.15;1.92;;;14.90;1.40;;;15.96;100.00;95669.50;646450;216;31528;-74
2022/05/13 00:52:06;;;;;;;2.90;1.60;;;14.90;1.40;;;16.02;100.00;95676.42;647110;216;32092;-72
2022/05/13 00:54:47;;;;;;;2.70;1.65;;;14.90;1.40;;;16.00;100.00;95673.52;648372;216;31579;-74
2022/05/13 00:57:32;;;;;;;1.30;1.20;;;14.90;1.40;;;15.98;100.00;95675.39;645704;216;31483;-74
2022/05/13 01:00:15;;;;;;;2.58;1.08;;;14.80;1.40;;;16.04;100.00;95676.16;647000;216;31598;-74
2022/05/13 01:02:56;;;;;;;2.90;2.15;;;14.90;1.40;;;16.02;100.00;95671.87;646063;216;32073;-73
2022/05/13 01:05:38;;;;;;;2.10;1.15;;;14.90;1.40;;;16.03;100.00;95675.61;647387;216;31679;-74
2022/05/13 01:08:22;;;;;;;2.72;2.00;;;14.90;1.40;;;16.04;100.00;95666.64;644215;216;31725;-73
2022/05/13 01:13:39;;;;;;;1.90;1.63;;;14.90;1.40;;;16.06;100.00;95663.23;647800;216;31579;-73
2022/05/13 01:16:23;;;;;;;1.77;1.65;;;14.90;1.40;;;16.12;100.00;95660.88;646578;216;32693;-74
2022/05/13 01:19:05;;;;;;;1.90;1.67;;;14.90;1.40;;;16.09;100.00;95666.18;646251;216;31982;-73
2022/05/13 01:21:48;;;;;;;2.20;2.00;;;14.90;1.40;;;16.07;100.00;95667.70;648332;216;31973;-74
2022/05/13 01:24:28;;;;;;;2.55;1.92;;;14.80;1.40;;;16.05;100.00;95664.32;647470;216;31645;-73
2022/05/13 01:27:10;;;;;;;1.83;1.65;;;14.80;1.40;;;16.01;100.00;95659.67;645090;212;31661;-74
2022/05/13 01:29:52;;;;;;;2.15;1.95;;;14.90;1.40;;;16.00;100.00;95658.13;618811;226;32035;-72
2022/05/13 01:32:33;;;;;;;1.40;1.30;;;14.90;1.40;;;16.00;100.00;95656.09;645757;216;31604;-73
2022/05/13 01:35:54;;;;;;;3.03;1.67;;;15.00;1.40;;;16.03;100.00;95658.97;645276;212;32475;-74
2022/05/13 01:38:35;;;;;;;5.80;1.50;;;15.10;1.40;;;16.03;100.00;95665.60;647849;216;31622;-73
2022/05/13 01:41:17;;;;;;;1.37;1.27;;;15.10;1.40;;;16.06;100.00;95669.38;620714;226;31897;-73
2022/05/13 01:43:59;;;;;;;1.50;1.30;;;15.20;1.40;;;16.18;100.00;95672.20;645128;216;31988;-74
2022/05/13 01:46:40;;;;;;;2.78;2.30;;;15.30;1.40;;;16.25;100.00;95681.00;645638;216;31538;-74
2022/05/13 01:49:22;;;;;;;1.50;1.33;;;15.40;1.40;;;16.26;100.00;95678.38;646968;216;31533;-73
2022/05/13 01:52:04;;;;;;;1.33;1.10;;;15.40;1.40;;;16.26;100.00;95668.98;645791;216;42163;-73
2022/05/13 01:54:46;;;;;;;1.90;1.20;;;15.40;1.40;;;16.19;100.00;95667.83;646268;216;31558;-73
2022/05/13 01:57:28;;;;;;;4.35;2.30;;;15.30;1.40;;;16.22;100.00;95672.37;646990;216;31521;-73
2022/05/13 02:00:13;;;;;;;1.98;1.50;;;15.30;1.40;;;16.18;100.00;95673.84;646028;213;31585;-73
2022/05/13 02:05:45;;;;;;;1.80;1.70;;;15.20;1.40;;;16.14;100.00;95673.22;646225;216;31570;-73
2022/05/13 02:08:27;;;;;;;2.50;1.77;;;15.20;1.40;;;16.12;100.00;95667.86;644023;216;31690;-73
2022/05/13 02:11:09;;;;;;;2.00;1.70;;;15.10;1.40;;;16.13;100.00;95668.86;646334;216;31514;-74
2022/05/13 02:13:54;;;;;;;2.75;1.73;;;15.10;1.40;;;16.12;100.00;95662.90;646305;216;31536;-74
2022/05/13 02:16:35;;;;;;;1.60;1.50;;;15.10;1.40;;;16.11;100.00;95667.31;646561;212;31587;-74
2022/05/13 02:19:17;;;;;;;2.10;1.40;;;15.10;1.40;;;16.15;100.00;95672.41;647420;216;32162;-74
2022/05/13 02:21:58;;;;;;;1.70;1.60;;;15.10;1.40;;;16.16;100.00;95677.16;646321;216;31552;-73
2022/05/13 02:24:40;;;;;;;3.15;2.50;;;15.10;1.40;;;16.14;100.00;95680.70;619862;226;32314;-74
2022/05/13 02:27:23;;;;;;;1.92;1.37;;;15.10;1.40;;;16.08;100.00;95683.56;645656;216;32095;-73
2022/05/13 02:30:07;;;;;;;2.12;1.85;;;15.00;1.40;;;16.05;100.00;95675.44;645752;216;32304;-74
2022/05/13 02:32:49;;;;;;;2.80;1.63;;;15.00;1.40;;;16.05;100.00;95676.23;646704;216;42181;-73
2022/05/13 02:35:53;;;;;;;;;;;15.00;1.40;;;16.05;100.00;95673.67;653342;212;24837;-74
2022/05/13 02:38:35;;;;;;;;;;;15.00;1.40;;;16.07;100.00;95672.95;653223;216;24815;-73
2022/05/13 02:41:16;;;;;;;;;;;15.00;1.40;;;16.05;100.00;95665.47;653878;216;24744;-74
2022/05/13 02:43:58;;;;;;;;;;;15.00;1.40;;;16.03;100.00;95661.99;653792;212;24909;-74
2022/05/13 02:46:39;;;;;;;;;;;14.90;1.40;;;15.99;100.00;95657.10;653415;216;25353;-74
2022/05/13 02:49:23;;;;;;;;;;;14.80;1.40;;;15.94;100.00;95674.96;653786;216;24812;-74
2022/05/13 02:52:05;;;;;;;;;;;14.70;1.40;;;15.85;100.00;95672.73;653738;216;24919;-74
2022/05/13 02:54:46;;;;;;;;;;;14.70;1.40;;;15.82;100.00;95668.09;649216;217;25463;-74
2022/05/13 02:57:28;;;;;;;;;;;14.60;1.40;;;15.77;100.00;95654.30;653113;216;24784;-74
2022/05/13 03:00:09;;;;;;;;;;;14.60;1.40;;;15.74;100.00;95656.30;652361;212;24815;-74
2022/05/13 03:02:50;;;;;;;;;;;14.60;1.40;;;15.71;100.00;95656.80;621740;226;25369;-73
2022/05/13 03:05:32;;;;;;;;;;;14.60;1.40;;;15.71;100.00;95648.31;654537;216;24734;-74
2022/05/13 03:08:13;;;;;;;;;;;14.60;1.40;;;15.72;100.00;95646.64;650947;216;24874;-75
2022/05/13 03:10:59;;;;;;;;;;;14.60;1.40;;;15.70;100.00;95637.34;607553;233;24832;-73
2022/05/13 03:13:40;;;;;;;;;;;14.60;1.40;;;15.68;100.00;95639.85;653918;212;25171;-74
2022/05/13 03:16:22;;;;;;;;;;;14.80;1.40;;;15.67;100.00;95647.59;652210;212;24836;-73
2022/05/13 03:19:04;;;;;;;;;;;14.70;1.40;;;15.61;100.00;95642.43;652855;216;24814;-74
2022/05/13 03:21:44;;;;;;;;;;;14.70;1.40;;;15.59;100.00;95639.00;652414;216;25198;-74
2022/05/13 03:24:26;;;;;;;;;;;14.70;1.40;;;15.57;100.00;95634.42;653738;216;24809;-73
2022/05/13 03:27:07;;;;;;;;;;;14.70;1.40;;;15.54;100.00;95635.41;652795;212;24857;-74
2022/05/13 03:29:48;;;;;;;;;;;14.80;1.40;;;15.55;100.00;95633.91;653340;216;24908;-74
2022/05/13 03:32:33;;;;;;;;;;;14.80;1.40;;;15.49;100.00;95627.83;648588;216;24826;-75
2022/05/13 03:35:54;;;;;;;2.20;1.40;;;14.80;1.40;;;15.51;100.00;95633.11;645857;212;31597;-74
2022/05/13 03:38:36;;;;;;;1.40;1.30;;;14.70;1.40;;;15.48;100.00;95636.30;618901;225;32576;-74
2022/05/13 03:41:18;;;;;;;1.90;1.60;;;14.70;1.40;;;15.46;100.00;95630.80;647376;216;31767;-74
2022/05/13 03:43:59;;;;;;;1.30;1.20;;;14.70;1.40;;;15.45;100.00;95621.12;646291;216;32060;-73
2022/05/13 03:49:16;;;;;;;1.25;1.10;;;14.70;1.40;;;15.43;100.00;95612.20;644701;216;31590;-74
2022/05/13 03:51:57;;;;;;;1.73;0.88;;;14.70;1.40;;;15.40;100.00;95621.30;647107;216;31641;-74
2022/05/13 03:57:16;;;;;;;1.57;0.90;;;14.60;1.40;;;15.33;100.00;95621.36;619140;222;43290;-74
2022/05/13 04:00:00;;;;;;;1.05;0.60;;;14.50;1.40;;;15.35;100.00;95616.92;646187;216;42380;-74
2022/05/13 04:02:42;;;;;;;3.72;1.30;;;14.40;1.40;;;15.34;100.00;95614.98;646503;216;31593;-74
2022/05/13 04:11:01;;;;;;;0.80;0.80;;;14.40;1.40;;;15.35;100.00;95622.08;647269;216;31925;-74
2022/05/13 04:16:30;;;;;;;1.20;0.75;;;14.30;1.40;;;15.34;100.00;95626.08;645885;216;31548;-74
2022/05/13 04:19:12;;;;;;;1.87;1.40;;;14.30;1.40;;;15.38;100.00;95623.92;646102;216;31545;-75
2022/05/13 04:21:53;;;;;;;1.20;1.00;;;14.30;1.40;;;15.33;100.00;95631.88;646131;216;42808;-74
2022/05/13 04:24:38;;;;;;;1.20;0.90;;;14.20;1.40;;;15.29;100.00;95635.13;641707;217;31489;-74
2022/05/13 04:27:20;;;;;;;1.45;1.08;;;14.20;1.40;;;15.29;100.00;95635.55;646248;216;31645;-73
2022/05/13 04:30:06;;;;;;;1.02;0.80;;;14.10;1.40;;;15.23;100.00;95638.00;619773;222;31848;-74
2022/05/13 04:32:48;;;;;;;1.25;1.10;;;14.10;1.40;;;15.20;100.00;95639.63;619673;225;32119;-74
2022/05/13 04:35:50;;;;;;;;;;;14.10;1.40;;;15.16;100.00;95643.13;651966;212;24830;-73
2022/05/13 04:38:32;;;;;;;;;;;14.10;1.40;;;15.18;100.00;95643.25;621063;227;25583;-74
2022/05/13 04:44:00;;;;;;;;;;;14.20;1.40;;;15.36;100.00;95656.48;653846;216;25272;-73
2022/05/13 04:46:41;;;;;;;;;;;14.30;1.40;;;15.52;100.00;95659.22;648393;216;24835;-74
2022/05/13 04:49:22;;;;;;;;;;;14.40;1.40;;;15.62;100.00;95666.49;654268;216;24820;-73
2022/05/13 04:52:04;;;;;;;;;;;14.50;1.40;;;15.71;100.00;95665.25;652476;216;24882;-74
2022/05/13 04:54:45;;;;;;;;;;;14.60;1.40;;;15.82;100.00;95666.95;636714;221;25279;-74
2022/05/13 04:57:26;;;;;;;;;;;14.70;1.40;;;15.99;100.00;95664.33;652883;216;24736;-74
2022/05/13 05:00:08;;;;;;;;;;;14.80;1.40;;;16.16;100.00;95663.98;653381;216;24745;-74
2022/05/13 05:02:50;;;;;;;;;;;15.00;1.40;;;16.40;100.00;95673.47;653497;216;24828;-74
2022/05/13 05:05:31;;;;;;;;;;;15.20;1.40;;;16.47;100.00;95685.33;653403;216;24825;-73
2022/05/13 05:08:12;;;;;;;;;;;15.30;1.40;;;16.36;100.00;95689.80;650157;216;24838;-74
2022/05/13 05:10:53;;;;;;;;;;;15.10;1.40;;;16.22;100.00;95690.06;653357;212;24851;-74
2022/05/13 05:13:38;;;;;;;;;;;15.00;1.40;;;16.12;100.00;95695.68;653125;216;24814;-74
2022/05/13 05:16:25;;;;;;;;;;;15.00;1.40;;;16.00;100.00;95699.86;647233;215;24851;-77
2022/05/13 05:19:13;;;;;;;;;;;14.90;1.40;;;15.85;100.00;95704.52;652938;212;24819;-74
2022/05/13 05:21:54;;;;;;;;;;;14.80;1.40;;;15.82;100.00;95705.17;652392;216;24826;-74
2022/05/13 05:24:35;;;;;;;;;;;14.70;1.40;;;15.79;100.00;95709.69;652420;212;25046;-74
2022/05/13 05:27:18;;;;;;;;;;;14.70;1.40;;;15.72;100.00;95709.25;654067;216;24871;-76
2022/05/13 05:30:06;;;;;;;;;;;14.70;1.40;;;15.78;100.00;95705.69;653402;216;24896;-73
2022/05/13 05:32:51;;;;;;;;;;;14.70;1.40;;;15.78;100.00;95710.17;653369;216;24885;-73
2022/05/13 05:35:51;;;;;;;1.70;0.80;;;14.70;1.40;;;15.78;100.00;95709.44;647350;216;31518;-74
2022/05/13 05:38:33;;;;;;;2.20;1.20;;;14.70;1.40;;;15.80;100.00;95713.73;645243;216;31809;-74
2022/05/13 05:41:14;;;;;;;2.80;1.83;;;14.80;1.40;;;15.85;100.00;95717.73;645738;216;31793;-73
2022/05/13 05:43:56;;;;;;;2.50;1.48;;;14.80;1.40;;;15.88;100.00;95717.20;647966;216;31889;-74
2022/05/13 05:46:38;;;;;;;1.48;1.37;;;14.80;1.40;;;15.96;100.00;95715.56;645707;216;31540;-74
2022/05/13 05:49:19;;;;;;;2.08;1.65;;;14.80;1.40;;;15.96;100.00;95714.91;646403;216;31763;-74
2022/05/13 05:52:01;;;;;;;1.08;0.80;;;14.80;1.40;;;16.00;100.00;95711.84;647840;216;31546;-74
2022/05/13 05:57:30;;;;;;;1.80;1.52;;;14.80;1.40;;;15.86;100.00;95713.60;619170;226;34037;-74
2022/05/13 06:00:12;;;;;;;1.25;1.15;;;14.80;1.40;;;15.94;100.00;95716.15;646837;212;32063;-74
2022/05/13 06:02:53;;;;;;;1.37;1.20;;;14.80;1.40;;;15.91;100.00;95708.55;618326;226;31823;-74
2022/05/13 06:05:35;;;;;;;1.70;1.60;;;14.80;1.40;;;16.03;100.00;95714.62;646654;216;31518;-74
2022/05/13 06:08:17;;;;;;;1.40;0.82;;;14.80;1.40;;;15.94;100.00;95715.28;644591;216;31793;-74
2022/05/13 06:10:58;;;;;;;2.08;1.27;;;14.70;1.40;;;15.83;100.00;95715.61;646054;216;31733;-74
2022/05/13 06:13:40;;;;;;;2.67;2.00;;;14.70;1.40;;;15.87;100.00;95714.56;647215;212;31585;-74
2022/05/13 06:16:22;;;;;;;2.35;1.45;;;14.80;1.40;;;15.97;100.00;95708.77;631680;217;31740;-75
2022/05/13 06:19:10;;;;;;;1.30;1.08;;;14.90;1.40;;;16.03;100.00;95705.41;619312;225;31836;-77
2022/05/13 06:21:52;;;;;;;1.70;1.60;;;15.10;1.40;;;16.54;100.00;95705.53;647603;212;31531;-77
2022/05/13 06:24:40;;;;;;;1.35;1.10;;;15.40;1.40;;;16.60;100.00;95713.45;645961;215;42205;-74
2022/05/13 06:27:25;;;;;;;1.73;1.63;;;15.20;1.40;;;16.31;100.00;95713.88;646103;216;31527;-76
2022/05/13 06:30:09;;;;;;;2.30;1.70;;;15.00;1.40;;;16.18;100.00;95710.07;646494;216;31577;-74
2022/05/13 06:32:51;;;;;;;1.98;1.05;;;15.00;1.40;;;16.30;100.00;95709.19;618304;222;32750;-74
2022/05/13 06:35:52;;;;;;;2.12;1.60;;;15.20;1.40;;;16.29;100.00;95705.26;647210;216;42168;-74
2022/05/13 06:38:36;;;;;;;1.62;1.15;;;15.30;1.40;;;16.28;100.00;95708.29;647670;216;31522;-77
2022/05/13 06:41:17;;;;;;;2.55;1.27;;;15.30;1.40;;;16.27;100.00;95699.25;647479;216;32018;-76
2022/05/13 06:43:59;;;;;;;1.63;1.23;;;15.30;1.40;;;16.39;100.00;95700.05;647453;216;31568;-77
2022/05/13 06:46:43;;;;;;;1.62;1.40;;;15.50;1.40;;;16.53;100.00;95709.80;647539;216;31555;-75
2022/05/13 06:49:25;;;;;;;1.50;1.20;;;15.70;1.40;;;16.75;100.00;95709.99;646373;216;31522;-74
2022/05/13 06:52:07;;;;;;;4.18;1.80;;;15.90;1.40;;;16.83;100.00;95704.34;647544;212;32188;-75
2022/05/13 06:54:48;;;;;;;1.40;1.30;;;16.10;1.40;;;16.96;100.00;95701.84;617935;222;31942;-74
2022/05/13 06:57:37;;;;;;;1.48;1.37;;;16.20;1.40;;;17.19;100.00;95700.84;619841;222;31829;-75
2022/05/13 07:00:18;;;;;;;2.00;1.80;;;16.40;1.40;;;17.19;100.00;95707.41;645870;216;31523;-76
2022/05/13 07:03:07;;;;;;;1.98;1.58;;;16.20;1.40;;;17.06;100.00;95705.73;646628;216;31532;-74
2022/05/13 07:05:53;;;;;;;1.33;1.02;;;16.10;1.40;;;16.93;100.00;95706.83;647187;212;31528;-75
2022/05/13 07:08:35;;;;;;;2.25;1.40;;;16.10;1.40;;;17.11;100.00;95700.80;647332;216;31543;-76
2022/05/13 07:11:23;;;;;;;3.22;1.67;;;16.40;1.40;;;17.53;100.00;95697.35;645595;215;31587;-74
2022/05/13 07:14:05;;;;;;;3.03;2.03;;;16.80;1.40;;;17.96;100.00;95702.52;647135;216;31657;-74
2022/05/13 07:16:46;;;;;;;1.48;1.30;;;17.20;1.40;;;18.06;100.00;95706.73;647927;216;31630;-74
2022/05/13 07:19:28;;;;;;;3.12;1.52;;;17.20;1.40;;;18.20;100.00;95719.80;645356;216;31759;-74
2022/05/13 07:22:10;;;;;;;2.78;1.12;;;17.30;1.40;;;18.38;100.00;95714.58;646330;216;31541;-74
2022/05/13 07:24:53;;;;;;;1.50;1.10;;;17.30;1.40;;;18.35;100.00;95722.67;647572;216;31514;-75
2022/05/13 07:27:41;;;;;;;1.00;1.00;;;17.60;1.40;;;19.01;100.00;95721.97;646773;212;31651;-74
2022/05/13 07:30:26;;;;;;;1.67;1.50;;;18.20;1.40;;;19.36;100.00;95728.23;646836;216;31634;-74
2022/05/13 07:35:51;;;;;;;3.25;1.50;;;17.90;1.40;;;18.90;100.00;95726.19;647717;216;31590;-74
2022/05/13 07:38:35;;;;;;;1.75;1.52;;;17.70;1.40;;;19.19;100.00;95724.45;645862;212;31553;-74
2022/05/13 07:41:25;;;;;;;1.40;1.30;;;17.90;1.40;;;19.25;100.00;95725.16;645988;216;31589;-76
2022/05/13 07:44:06;;;;;;;2.17;1.77;;;17.90;1.40;;;19.21;100.00;95724.70;646646;212;42723;-76
2022/05/13 07:46:53;;;;;;;2.35;1.40;;;18.10;1.40;;;19.32;100.00;95722.54;646221;216;31539;-73
2022/05/13 07:49:42;;;;;;;1.70;1.40;;;18.30;1.40;;;19.70;100.00;95721.16;647296;212;42470;-75
2022/05/13 07:52:29;;;;;;;1.60;1.40;;;18.60;1.40;;;20.00;100.00;95717.66;646940;216;42390;-75
2022/05/13 07:55:16;;;;;;;1.48;1.30;;;19.00;1.40;;;20.21;100.00;95716.30;647007;216;32220;-75
2022/05/13 07:58:04;;;;;;;4.25;1.90;;;18.80;1.40;;;20.29;100.00;95716.94;645583;216;31806;-74
2022/05/13 08:00:46;;;;;;;1.80;1.40;;;19.00;1.40;;;20.46;100.00;95715.56;647167;216;31570;-74
2022/05/13 08:03:34;;;;;;;1.92;1.50;;;19.00;1.40;;;20.78;100.00;95711.86;619894;226;31975;-76
2022/05/13 08:06:15;;;;;;;2.00;1.77;;;19.40;1.40;;;21.04;100.00;95705.89;647072;212;31933;-76
2022/05/13 08:08:58;;;;;;;2.20;1.57;;;19.60;1.40;;;21.02;100.00;95706.06;636669;216;31721;-76
2022/05/13 08:11:41;;;;;;;2.90;1.40;;;19.50;1.40;;;21.21;100.00;95709.05;647532;216;31516;-75
2022/05/13 08:14:28;;;;;;;1.70;1.50;;;19.80;1.40;;;20.96;100.00;95714.00;645965;216;31676;-75
2022/05/13 08:17:16;;;;;;;2.30;1.30;;;19.40;1.40;;;21.04;100.00;95709.73;646215;216;31571;-75
2022/05/13 08:20:04;;;;;;;2.83;2.15;;;19.50;1.40;;;21.53;100.00;95706.89;645821;216;31624;-75
2022/05/13 08:22:46;;;;;;;1.75;1.60;;;19.80;1.40;;;21.06;100.00;95706.17;647391;212;31670;-76
2022/05/13 08:25:34;;;;;;;1.52;1.42;;;20.00;1.40;;;21.37;100.00;95704.11;646948;216;31571;-73
2022/05/13 08:30:56;;;;;;;2.33;1.52;;;19.70;1.40;;;20.76;100.00;95699.12;618542;226;32234;-76
2022/05/13 08:35:56;;;;;;;2.10;1.70;;;18.80;1.40;;;20.31;100.00;95695.55;619962;226;31923;-77
2022/05/13 08:38:44;;;;;;;1.73;1.40;;;18.60;1.40;;;19.64;100.00;95691.81;646999;216;31669;-74
2022/05/13 08:41:38;;;;;;;3.03;1.60;;;18.40;1.40;;;19.33;100.00;95691.48;648166;216;32096;-75
2022/05/13 08:44:26;;;;;;;2.22;1.92;;;18.50;1.40;;;19.35;100.00;95675.39;630229;222;31691;-74
2022/05/13 08:49:54;;;;;;;2.40;2.00;;;18.50;1.40;;;19.02;100.00;95682.89;645916;213;32606;-74
2022/05/13 08:55:32;;;;;;;2.20;1.20;;;18.10;1.40;;;19.01;100.00;95671.52;646509;216;42210;-75
2022/05/13 08:58:22;;;;;;;2.92;1.58;;;18.10;1.40;;;18.85;100.00;95685.94;619951;222;31852;-75
2022/05/13 09:01:04;;;;;;;1.87;1.70;;;17.90;1.40;;;18.66;100.00;95704.59;646109;216;42172;-76
2022/05/13 09:04:02;;;;;;;2.30;1.80;;;17.80;1.40;;;18.39;100.00;95706.42;646336;216;31533;-74
2022/05/13 09:06:47;;;;;;;1.70;1.60;;;17.30;1.40;;;17.93;100.00;95708.25;646615;216;31491;-74
2022/05/13 09:09:29;;;;;;;2.20;1.60;;;16.60;1.40;;;17.45;100.00;95709.02;628548;220;32077;-74
2022/05/13 09:12:22;;;;;;;1.40;1.30;;;16.20;1.40;;;17.23;100.00;95705.78;647154;216;31540;-74
2022/05/13 09:15:15;;;;;;;1.90;1.65;;;15.90;1.40;;;17.19;100.00;95694.59;614974;225;32163;-75
2022/05/13 09:18:03;;;;;;;1.60;1.30;;;15.80;1.40;;;17.14;100.00;95690.09;647461;212;31571;-75
2022/05/13 09:20:51;;;;;;;1.62;1.45;;;15.80;1.40;;;17.03;100.00;95697.48;619314;226;32390;-75
2022/05/13 09:23:32;;;;;;;2.20;1.70;;;15.70;1.40;;;16.99;100.00;95696.41;620728;222;31914;-74
2022/05/13 09:26:14;;;;;;;;;;;15.80;1.40;;;17.11;100.00;95690.77;652072;216;24914;-74
2022/05/13 09:29:03;;;;;;;;;;;16.00;1.40;;;17.35;100.00;95689.68;652659;216;24731;-75
2022/05/13 09:31:43;;;;;;;;;;;16.50;1.40;;;17.85;100.00;95689.68;654506;216;24826;-74
2022/05/13 09:35:56;;;;;;;;;;;17.40;1.40;;;18.61;100.00;95689.09;652853;216;24846;-75
2022/05/13 09:38:45;;;;;;;;;;;17.70;1.40;;;18.78;100.00;95695.15;653072;216;24804;-75
2022/05/13 09:41:29;;;;;;;;;;;17.60;1.40;;;18.83;100.00;95692.36;648894;215;24107;-75
2022/05/13 09:44:13;;;;;;;;;;;17.60;1.40;;;19.17;100.00;95692.31;654965;216;24712;-77
2022/05/13 09:47:06;;;;;;;;;;;17.80;1.40;;;19.35;100.00;95688.83;652248;216;24858;-74
2022/05/13 09:49:54;;;;;;;;;;;17.80;1.40;;;19.25;100.00;95698.44;654045;216;24725;-75
2022/05/13 09:52:38;;;;;;;;;;;17.60;1.40;;;18.85;100.00;95701.07;653564;212;25385;-75
2022/05/13 09:55:24;;;;;;;;;;;17.20;1.40;;;18.49;100.00;95689.95;654892;212;24852;-75
2022/05/13 09:58:06;;;;;;;;;;;16.90;1.40;;;18.17;100.00;95693.09;653492;216;24838;-75
2022/05/13 10:00:48;;;;;;;;;;;16.70;1.40;;;17.82;100.00;95708.02;653095;212;25512;-74
2022/05/13 10:03:36;;;;;;;;;;;16.20;1.40;;;17.65;100.00;95703.75;653203;216;24828;-74
2022/05/13 10:06:19;;;;;;;;;;;16.10;1.40;;;17.53;100.00;95700.77;649795;217;24846;-75
2022/05/13 10:14:51;;;;;;;;;;;15.60;1.40;;;17.01;100.00;95705.75;653491;216;24821;-76
2022/05/13 10:17:33;;;;;;;;;;;15.50;1.40;;;17.13;100.00;95708.66;654517;216;24820;-76
2022/05/13 10:20:30;;;;;;;;;;;15.60;1.40;;;17.00;100.00;95717.79;652941;212;25434;-77
2022/05/13 10:23:18;;;;;;;;;;;15.40;1.40;;;16.23;100.00;95723.16;653967;216;24732;-75
2022/05/13 10:26:07;;;;;;;;;;;15.00;1.40;;;16.13;100.00;95725.16;653211;216;25019;-77
2022/05/13 10:29:07;;;;;;;;;;;14.90;1.40;;;15.94;100.00;95753.32;653453;216;25265;-74
2022/05/13 10:31:49;;;;;;;;;;;14.80;1.40;;;15.56;100.00;95758.47;652527;216;24736;-75
2022/05/13 10:36:02;;;;;;;0.95;0.90;;;14.10;1.40;;;15.17;100.00;95754.30;648441;216;31554;-77
2022/05/13 10:38:47;;;;;;;;;;;14.00;1.40;;;15.09;100.00;95762.22;654648;216;25527;-73
2022/05/13 10:41:31;;;;;;;;;;;13.90;1.40;;;15.05;100.00;95766.28;653443;216;24968;-74
2022/05/13 10:44:28;;;;;;;;;;;13.90;1.40;;;15.11;100.00;95753.58;653385;212;25003;-75
2022/05/13 10:47:18;;;;;;;;;;;14.00;1.40;;;15.11;100.00;95771.64;653616;216;25163;-74
2022/05/13 10:49:59;;;;;;;;;;;13.90;1.40;;;15.08;100.00;95780.34;648950;216;25010;-76
2022/05/13 10:52:58;;;;;;;;;;;14.00;1.40;;;15.06;100.00;95766.30;654058;212;24983;-74
2022/05/13 10:56:04;;;;;;;;;;;13.80;1.40;;;15.03;100.00;95751.91;653059;216;25068;-73
2022/05/13 10:59:01;;;;;;;;;;;13.80;1.40;;;15.05;100.00;95761.08;653335;216;24987;-74
2022/05/13 11:01:50;;;;;;;;;;;13.90;1.40;;;15.13;100.00;95755.63;651738;216;24987;-74
2022/05/13 11:04:41;;;;;;;;;;;13.90;1.40;;;15.30;100.00;95757.52;653254;216;25458;-73
2022/05/13 11:07:42;;;;;;;;;;;14.10;1.40;;;15.53;100.00;95748.94;651330;216;25079;-73
2022/05/13 11:10:33;;;;;;;;;;;14.40;1.40;;;15.56;100.00;95749.45;653819;216;24971;-73
2022/05/13 11:13:26;;;;;;;;;;;14.40;1.40;;;15.59;100.00;95757.56;649574;216;24965;-74
2022/05/13 11:16:08;;;;;;;;;;;14.30;1.40;;;15.67;100.00;95758.05;651863;215;25052;-73
2022/05/13 11:18:54;;;;;;;;;;;14.40;1.40;;;15.43;100.00;95767.02;653739;216;24966;-73
2022/05/13 11:21:40;;;;;;;;;;;14.20;1.40;;;15.45;100.00;95762.66;652872;216;24972;-73
2022/05/13 11:27:49;;;;;;;;;;;14.30;1.40;;;15.36;100.00;95761.64;653709;216;24974;-73
2022/05/13 11:30:32;;;;;;;;;;;14.30;1.40;;;15.42;100.00;95758.02;652737;216;25382;-73
2022/05/13 11:36:01;;;;;;;0.73;0.60;;;14.30;1.40;;;15.05;100.00;95760.31;646997;216;31497;-75
2022/05/13 11:39:13;;;;;;;0.50;0.35;;;14.20;1.40;;;15.10;100.00;95765.80;646511;216;31474;-74
2022/05/13 11:42:00;;;;;;;;;;;14.30;1.40;;;15.12;100.00;95771.69;652513;216;24724;-73
2022/05/13 11:44:59;;;;;;;;;;;14.30;1.40;;;15.21;100.00;95774.77;653070;216;24732;-74
2022/05/13 11:47:48;;;;;;;;;;;14.40;1.40;;;15.16;100.00;95778.74;652927;212;24725;-73
2022/05/13 11:50:27;;;;;;;;;;;14.30;1.40;;;15.31;100.00;95772.08;647303;215;24743;-74
2022/05/13 11:53:11;;;;;;;;;;;14.50;1.40;;;15.59;100.00;95764.81;652693;216;24726;-73
2022/05/13 11:55:53;;;;;;;;;;;14.70;1.40;;;15.57;100.00;95759.66;653922;212;25005;-73
2022/05/13 11:58:42;;;;;;;;;;;14.70;1.40;;;15.71;100.00;95754.72;653789;216;24912;-74
2022/05/13 12:01:52;;;;;;;;;;;15.00;1.40;;;16.03;100.00;95756.94;652492;216;25582;-75
2022/05/13 12:04:33;;;;;;;;;;;15.30;1.40;;;16.90;100.00;95758.70;652699;216;24820;-74
2022/05/13 12:07:17;;;;;;;;;;;16.80;1.40;;;18.39;100.00;95763.80;651656;216;25664;-73
2022/05/13 12:09:58;;;;;;;;;;;18.10;1.40;;;19.45;100.00;95763.56;654912;212;24825;-73
2022/05/13 12:12:58;;;;;;;;;;;18.50;1.40;;;20.78;100.00;95776.39;653148;212;24824;-73
2022/05/13 12:16:00;;;;;;;;;;;18.80;1.40;;;21.01;100.00;95781.05;653175;216;24898;-73
2022/05/13 12:18:43;;;;;;;;;;;18.90;1.40;;;20.78;100.00;95784.28;655118;216;24815;-73
2022/05/13 12:21:27;;;;;;;;;;;18.90;1.40;;;21.83;100.00;95792.00;653465;216;24851;-73
2022/05/13 12:24:23;;;;;;;;;;;19.70;1.40;;;22.26;100.00;95781.32;653614;216;24814;-73
2022/05/13 12:27:07;;;;;;;;;;;19.60;1.40;;;21.90;100.00;95788.42;652777;216;24832;-73
2022/05/13 12:30:01;;;;;;;;;;;19.50;1.40;;;23.23;100.00;95788.00;653124;216;24826;-73
2022/05/13 12:32:42;;;;;;;;;;;20.80;1.40;;;22.40;100.00;95793.79;653638;216;24836;-72
2022/05/13 12:38:55;;;;;;;0.80;0.80;;;19.10;1.40;;;20.20;100.00;95789.66;647085;212;31822;-73
2022/05/13 12:42:06;;;;;;;1.35;0.80;;;18.90;1.40;;;20.83;100.00;95787.03;647551;216;31500;-74
2022/05/13 12:45:02;;;;;;;1.10;1.00;;;19.10;1.40;;;21.34;100.00;95784.91;647273;216;31498;-73
2022/05/13 12:47:55;;;;;;;1.27;1.00;;;19.20;1.40;;;21.06;100.00;95784.47;646774;212;32205;-73
2022/05/13 12:50:46;;;;;;;1.40;0.98;;;19.40;1.40;;;20.63;100.00;95787.10;646152;216;31556;-73
2022/05/13 12:56:29;;;;;;;1.30;1.17;;;18.00;1.40;;;19.66;100.00;95791.92;646873;212;40322;-73
2022/05/13 12:59:17;;;;;;;1.40;1.00;;;18.10;1.40;;;19.60;100.00;95789.64;646758;216;32182;-72
2022/05/13 13:02:01;;;;;;;1.80;1.50;;;18.20;1.40;;;19.60;100.00;95788.20;646209;216;31606;-75